Time;durP1;ratioP1;P1;durP2;ratioP2;P2;SDS_P1;SDS_P2;PMS_P1;PMS_P2;Temp;Humidity;BMP_temperature;BMP_pressure;BME280_temperature;BME280_humidity;BME280_pressure;Samples;Min_cycle;Max_cycle;Signal;HPM_P1;HPM_P2
2023/02/12 00:01:39;;;;;;;63.65;28.08;;;;;;;-3.06;60.46;101131.59;5069058;28;20024;-36
2023/02/12 00:04:04;;;;;;;56.88;25.20;;;;;;;-3.15;59.20;101129.59;5068825;28;20115;-37
2023/02/12 00:06:30;;;;;;;57.60;25.15;;;;;;;-3.10;60.06;101127.53;5069150;28;20036;-36
2023/02/12 00:08:56;;;;;;;53.90;24.48;;;;;;;-3.10;60.81;101130.94;5069097;28;20074;-36
2023/02/12 00:11:24;;;;;;;42.75;20.15;;;;;;;-3.20;60.91;101105.59;5068998;28;20087;-36
2023/02/12 00:13:53;;;;;;;40.70;18.15;;;;;;;-3.05;61.50;101122.81;5068978;28;20055;-35
2023/02/12 00:16:27;;;;;;;42.38;20.35;;;;;;;-3.30;60.96;101098.38;5051294;28;20048;-36
2023/02/12 00:18:54;;;;;;;56.88;24.63;;;;;;;-3.25;61.16;101122.41;5068690;28;20121;-37
2023/02/12 00:21:21;;;;;;;37.70;17.67;;;;;;;-3.01;59.70;101113.00;5068670;28;20154;-36
2023/02/12 00:23:46;;;;;;;43.50;20.15;;;;;;;-3.34;60.56;101107.34;5068885;28;20025;-36
2023/02/12 00:26:15;;;;;;;54.50;22.88;;;;;;;-2.96;59.93;101122.19;5074937;28;20104;-36
2023/02/12 00:28:41;;;;;;;53.17;22.55;;;;;;;-3.53;61.85;101092.13;5074054;28;20031;-36
2023/02/12 00:31:15;;;;;;;37.90;17.55;;;;;;;-3.48;62.28;101110.88;5050787;28;20037;-35
2023/02/12 00:33:40;;;;;;;53.97;23.23;;;;;;;-3.87;63.93;101089.13;5068795;28;20040;-36
2023/02/12 00:36:07;;;;;;;32.78;17.08;;;;;;;-4.02;64.71;101092.72;5068434;28;20442;-36
2023/02/12 00:38:33;;;;;;;45.45;20.98;;;;;;;-3.57;63.75;101115.88;5068673;28;20033;-36
2023/02/12 00:40:59;;;;;;;50.47;24.08;;;;;;;-3.42;62.92;101114.03;5068007;28;20113;-36
2023/02/12 00:43:27;;;;;;;52.08;25.80;;;;;;;-3.26;62.23;101114.66;5068084;28;20032;-36
2023/02/12 00:45:53;;;;;;;49.25;23.73;;;;;;;-3.29;61.35;101083.56;5070683;28;20035;-36
2023/02/12 00:48:18;;;;;;;103.80;39.08;;;;;;;-3.50;62.92;101101.50;5086902;28;20114;-36
2023/02/12 00:50:46;;;;;;;66.95;28.20;;;;;;;-3.65;64.78;101098.97;5059636;28;20373;-36
2023/02/12 00:53:12;;;;;;;80.10;34.63;;;;;;;-3.55;64.01;101074.91;5071932;28;20068;-36
2023/02/12 00:55:37;;;;;;;57.92;23.65;;;;;;;-3.16;61.76;101065.31;5071494;28;20122;-36
2023/02/12 00:58:03;;;;;;;47.97;21.02;;;;;;;-2.94;60.80;101103.78;5071925;28;20544;-36
2023/02/12 01:00:28;;;;;;;46.78;19.35;;;;;;;-2.95;61.48;101071.63;5071402;28;20047;-36
2023/02/12 01:02:53;;;;;;;44.58;17.95;;;;;;;-2.63;59.57;101092.06;5071576;28;20115;-37
2023/02/12 01:05:21;;;;;;;34.08;15.95;;;;;;;-2.83;59.85;101086.44;5071721;28;20036;-36
2023/02/12 01:07:51;;;;;;;44.77;18.20;;;;;;;-3.27;61.52;101046.03;5071697;28;20115;-36
2023/02/12 01:10:17;;;;;;;35.30;16.63;;;;;;;-3.38;61.38;101051.13;5072021;28;20266;-36
2023/02/12 01:12:42;;;;;;;43.53;18.17;;;;;;;-3.33;60.95;101056.88;5071447;28;20030;-36
2023/02/12 01:15:11;;;;;;;43.42;19.80;;;;;;;-3.34;61.04;101039.53;5070034;28;20032;-37
2023/02/12 01:17:37;;;;;;;45.25;18.85;;;;;;;-2.75;60.00;101077.25;5071377;28;20027;-35
2023/02/12 01:20:06;;;;;;;47.28;20.63;;;;;;;-3.14;61.11;101082.53;5071495;28;20032;-35
2023/02/12 01:22:32;;;;;;;;;;;;;;;-3.07;61.70;101082.94;5071911;28;20032;-37
2023/02/12 01:24:58;;;;;;;38.80;17.95;;;;;;;-3.51;62.66;101055.50;5053568;28;20383;-36
2023/02/12 01:27:23;;;;;;;40.10;17.23;;;;;;;-3.59;63.43;101060.41;5070863;28;20104;-36
2023/02/12 01:29:49;;;;;;;36.47;16.80;;;;;;;-3.48;63.10;101042.25;5081363;28;20116;-36
2023/02/12 01:32:14;;;;;;;34.78;15.80;;;;;;;-3.70;64.15;101061.97;5086075;28;20480;-36
2023/02/12 01:34:39;;;;;;;38.15;16.40;;;;;;;-3.59;64.27;101070.84;5073357;28;20514;-36
2023/02/12 01:37:05;;;;;;;35.10;16.13;;;;;;;-3.55;63.97;101057.47;5091685;28;20032;-36
2023/02/12 01:39:30;;;;;;;36.65;17.85;;;;;;;-3.80;64.19;101027.00;5090869;28;20502;-37
2023/02/12 01:41:56;;;;;;;40.28;18.45;;;;;;;-3.69;63.78;101055.78;5091288;28;20475;-37
2023/02/12 01:44:28;;;;;;;48.67;20.33;;;;;;;-3.71;63.50;101036.00;5086014;28;20039;-36
2023/02/12 01:46:59;;;;;;;34.22;15.57;;;;;;;-3.71;63.09;101026.38;5085496;28;20400;-36
2023/02/12 01:49:32;;;;;;;34.83;16.52;;;;;;;-3.56;63.19;101028.91;5070817;28;20028;-36
2023/02/12 01:52:24;;;;;;;30.27;14.45;;;;;;;-3.38;63.43;101053.72;5070937;28;20028;-35
2023/02/12 01:54:51;;;;;;;26.42;12.57;;;;;;;-3.38;63.35;101040.69;5070690;28;20793;-36
2023/02/12 01:57:18;;;;;;;23.90;11.30;;;;;;;-3.14;62.38;101051.22;5069486;28;20032;-36
2023/02/12 01:59:49;;;;;;;22.33;10.10;;;;;;;-3.08;61.79;101044.75;5070514;28;20017;-35
2023/02/12 02:02:15;;;;;;;24.45;10.23;;;;;;;-3.40;61.99;101029.53;5070716;28;20029;-36
2023/02/12 02:04:45;;;;;;;22.52;10.55;;;;;;;-3.40;61.83;101046.94;5070526;28;20051;-35
2023/02/12 02:07:11;;;;;;;26.55;12.52;;;;;;;-3.36;61.22;101044.03;5070423;28;20035;-36
2023/02/12 02:09:40;;;;;;;25.25;11.23;;;;;;;-3.67;61.02;101022.63;5070428;28;20024;-37
2023/02/12 02:14:55;;;;;;;26.70;11.00;;;;;;;-3.70;61.42;101048.94;5070711;28;20040;-37
2023/02/12 02:17:48;;;;;;;59.40;23.50;;;;;;;-3.57;61.07;101058.53;5070119;28;20470;-36
2023/02/12 02:20:31;;;;;;;30.48;12.80;;;;;;;-3.68;61.47;101052.25;5070538;28;20040;-36
2023/02/12 02:23:18;;;;;;;24.95;12.00;;;;;;;-3.47;62.14;101049.16;5068890;28;20094;-35
2023/02/12 02:25:55;;;;;;;26.25;11.02;;;;;;;-4.06;63.15;101053.00;5070331;28;20033;-36
2023/02/12 02:28:58;;;;;;;23.70;11.25;;;;;;;-4.41;66.06;101047.47;5070739;28;20411;-36
2023/02/12 02:31:40;;;;;;;21.98;10.07;;;;;;;-4.30;65.60;101044.19;5081418;28;20028;-36
2023/02/12 02:34:14;;;;;;;26.98;10.23;;;;;;;-4.08;65.39;101064.47;5090221;28;20480;-36
2023/02/12 02:37:08;;;;;;;22.55;9.43;;;;;;;-3.76;64.08;101053.69;5090233;28;20081;-37
2023/02/12 02:39:46;;;;;;;23.33;10.65;;;;;;;-4.24;66.28;101067.22;5053025;28;20052;-36
2023/02/12 02:42:22;;;;;;;25.20;11.40;;;;;;;-4.13;66.03;101066.53;5067974;28;20119;-36
2023/02/12 02:44:52;;;;;;;21.45;10.10;;;;;;;-3.95;64.82;101070.53;5083146;28;20050;-36
2023/02/12 02:47:22;;;;;;;23.17;10.68;;;;;;;-3.87;64.38;101043.97;5090090;28;20028;-37
2023/02/12 02:50:03;;;;;;;27.00;11.35;;;;;;;-3.85;65.00;101058.56;5090560;28;20032;-36
2023/02/12 02:52:42;;;;;;;24.17;11.75;;;;;;;-3.60;64.56;101058.72;5090350;28;20024;-35
2023/02/12 02:55:09;;;;;;;;;;;;;;;-4.01;65.84;101059.69;5090119;28;20070;-36
2023/02/12 02:57:44;;;;;;;26.27;12.77;;;;;;;-3.86;65.81;101043.06;5088484;28;19916;-36
2023/02/12 03:00:21;;;;;;;23.02;11.95;;;;;;;-3.84;65.53;101046.41;5090030;28;20038;-36
2023/02/12 03:02:52;;;;;;;27.03;12.43;;;;;;;-3.89;65.67;101007.59;5089952;28;20024;-36
2023/02/12 03:05:36;;;;;;;27.92;13.10;;;;;;;-3.74;66.12;101052.69;5071419;28;20132;-36
2023/02/12 03:08:12;;;;;;;30.55;15.50;;;;;;;-3.65;66.01;101059.88;5088359;28;20039;-35
2023/02/12 03:10:45;;;;;;;33.78;17.08;;;;;;;-3.82;66.57;101060.16;5090112;28;20089;-35
2023/02/12 03:14:00;;;;;;;27.92;13.02;;;;;;;-3.80;67.11;101053.09;5089907;28;20024;-36
2023/02/12 03:16:33;;;;;;;27.90;13.13;;;;;;;-3.95;67.08;101039.28;5058137;28;20539;-35
2023/02/12 03:19:28;;;;;;;41.55;20.58;;;;;;;-3.79;67.15;101054.72;5089751;28;20519;-36
2023/02/12 03:22:10;;;;;;;88.93;37.17;;;;;;;-3.56;65.37;101054.97;5087120;28;20047;-35
2023/02/12 03:24:43;;;;;;;50.53;22.90;;;;;;;-3.71;65.98;101047.25;5089789;28;20077;-37
2023/02/12 03:27:16;;;;;;;79.15;34.28;;;;;;;-3.72;66.14;101040.38;5089494;28;20027;-37
2023/02/12 03:29:47;;;;;;;56.45;24.30;;;;;;;-3.71;65.75;101042.03;5083506;28;20021;-35
2023/02/12 03:32:40;;;;;;;47.97;22.77;;;;;;;-3.50;65.02;101050.16;5075611;28;20024;-37
2023/02/12 03:35:12;;;;;;;47.05;20.77;;;;;;;-3.47;65.07;101043.94;5069313;28;20025;-37
2023/02/12 03:38:06;;;;;;;41.10;19.92;;;;;;;-3.59;65.85;101044.75;5069196;28;20580;-36
2023/02/12 03:40:36;;;;;;;36.95;18.23;;;;;;;-3.32;65.24;101047.25;5078566;28;20089;-35
2023/02/12 03:43:08;;;;;;;31.35;17.35;;;;;;;-3.59;66.46;101050.81;5073592;28;20703;-36
2023/02/12 03:45:49;;;;;;;37.08;17.02;;;;;;;-3.66;67.60;101047.78;5068940;28;20523;-36
2023/02/12 03:48:23;;;;;;;36.45;17.55;;;;;;;-3.65;67.47;101039.00;5051267;28;20033;-35
2023/02/12 03:51:12;;;;;;;44.83;20.60;;;;;;;-3.70;68.09;101043.72;5069049;28;20047;-37
2023/02/12 03:53:37;;;;;;;44.55;22.80;;;;;;;-3.93;67.71;101005.31;5057849;28;20040;-36
2023/02/12 03:56:14;;;;;;;47.00;20.33;;;;;;;-4.26;69.08;101019.63;5068985;28;20035;-37
2023/02/12 03:58:41;;;;;;;45.03;23.37;;;;;;;-4.24;69.19;101033.38;5069123;28;20027;-36
2023/02/12 04:01:07;;;;;;;52.78;25.08;;;;;;;-3.96;68.16;101021.97;5068864;28;20107;-36
2023/02/12 04:03:33;;;;;;;54.45;25.83;;;;;;;-3.84;67.34;101020.34;5068609;28;20975;-37
2023/02/12 04:05:58;;;;;;;56.95;25.92;;;;;;;-4.07;67.23;101004.44;5068583;28;20031;-36
2023/02/12 04:08:25;;;;;;;56.25;25.17;;;;;;;-3.76;67.21;101027.63;5069067;28;20035;-36
2023/02/12 04:11:13;;;;;;;45.00;22.83;;;;;;;-3.58;66.99;101030.78;5050851;28;20377;-36
2023/02/12 04:14:04;;;;;;;46.60;23.23;;;;;;;-3.57;66.90;101035.06;5068621;28;20472;-36
2023/02/12 04:16:53;;;;;;;44.03;19.70;;;;;;;-3.34;66.36;101038.72;5068710;28;20416;-36
2023/02/12 04:19:36;;;;;;;54.67;25.48;;;;;;;-3.37;65.95;101023.25;5068688;28;20058;-36
2023/02/12 04:22:28;;;;;;;53.72;25.08;;;;;;;-3.25;65.16;101018.06;5072671;28;20488;-36
2023/02/12 04:24:53;;;;;;;43.22;21.50;;;;;;;-3.19;65.74;101031.59;5072618;28;20020;-36
2023/02/12 04:27:29;;;;;;;44.55;23.48;;;;;;;-3.22;65.77;101031.81;5071118;28;20078;-37
2023/02/12 04:30:19;;;;;;;55.03;28.05;;;;;;;-3.20;66.24;101040.38;5072879;28;20116;-36
2023/02/12 04:33:03;;;;;;;73.78;37.22;;;;;;;-3.45;65.70;101021.19;5084165;28;20404;-36
2023/02/12 04:35:28;;;;;;;72.95;35.60;;;;;;;-3.33;65.73;101056.00;5072756;28;20039;-36
2023/02/12 04:38:10;;;;;;;66.38;34.38;;;;;;;-3.60;66.97;101040.47;5079353;28;20032;-36
2023/02/12 04:40:38;;;;;;;60.10;31.40;;;;;;;-3.43;66.56;101050.59;5085589;28;20064;-35
2023/02/12 04:43:03;;;;;;;58.38;28.27;;;;;;;-3.33;65.54;101025.56;5072122;28;20125;-36
2023/02/12 04:45:41;;;;;;;49.30;26.38;;;;;;;-3.42;65.24;101030.56;5071873;28;20071;-36
2023/02/12 04:48:07;;;;;;;49.13;23.58;;;;;;;-3.14;64.83;101035.56;5072057;28;20520;-36
2023/02/12 04:50:44;;;;;;;51.25;23.45;;;;;;;-3.21;65.50;101028.25;5072148;28;20036;-36
2023/02/12 04:53:10;;;;;;;45.33;22.77;;;;;;;-3.37;65.54;101024.09;5071965;28;20051;-36
2023/02/12 04:55:36;;;;;;;51.10;23.90;;;;;;;-3.12;64.78;101043.28;5071642;28;20762;-36
2023/02/12 04:58:01;;;;;;;44.25;21.10;;;;;;;-3.11;65.22;101058.00;5071649;28;20063;-36
2023/02/12 05:00:27;;;;;;;46.60;21.48;;;;;;;-3.14;64.85;101022.50;5072007;28;20035;-36
2023/02/12 05:02:55;;;;;;;46.03;21.08;;;;;;;-2.96;64.82;101056.94;5053884;28;20028;-36
2023/02/12 05:05:21;;;;;;;45.65;23.35;;;;;;;-2.79;64.67;101060.16;5071723;28;20013;-36
2023/02/12 05:07:48;;;;;;;56.92;24.05;;;;;;;-2.91;64.95;101060.03;5071829;28;20082;-37
2023/02/12 05:10:14;;;;;;;72.88;41.40;;;;;;;-2.89;65.71;101059.94;5071966;28;20040;-36
2023/02/12 05:12:43;;;;;;;82.22;42.65;;;;;;;-3.24;66.43;101065.84;5071484;28;20572;-37
2023/02/12 05:15:08;;;;;;;79.15;34.78;;;;;;;-3.35;66.36;101048.31;5071589;28;20024;-36
2023/02/12 05:17:34;;;;;;;67.35;31.17;;;;;;;-3.40;67.42;101058.22;5071198;28;20036;-36
2023/02/12 05:20:01;;;;;;;101.00;55.00;;;;;;;-3.30;67.25;101080.13;5071515;28;20024;-36
2023/02/12 05:22:27;;;;;;;73.83;38.17;;;;;;;-3.32;66.58;101066.34;5071836;28;20025;-36
2023/02/12 05:24:52;;;;;;;63.40;32.70;;;;;;;-3.47;68.60;101086.47;5071281;28;20286;-36
2023/02/12 05:27:17;;;;;;;62.20;31.08;;;;;;;-3.33;68.33;101089.91;5071351;28;20028;-36
2023/02/12 05:29:43;;;;;;;64.60;32.40;;;;;;;-3.16;68.32;101094.84;5071472;28;20035;-36
2023/02/12 05:32:09;;;;;;;58.53;29.05;;;;;;;-2.88;65.46;101100.75;5060283;28;20054;-36
2023/02/12 05:34:36;;;;;;;59.22;29.27;;;;;;;-2.82;65.07;101102.94;5061447;28;20052;-37
2023/02/12 05:37:02;;;;;;;62.47;32.78;;;;;;;-2.95;66.23;101089.91;5064533;28;20055;-37
2023/02/12 05:39:27;;;;;;;53.00;26.70;;;;;;;-3.18;67.78;101106.31;5072768;28;20151;-36
2023/02/12 05:41:53;;;;;;;52.80;26.98;;;;;;;-3.21;67.08;101111.75;5091679;28;20081;-36
2023/02/12 05:44:18;;;;;;;56.65;26.58;;;;;;;-3.26;67.65;101102.44;5091403;28;20444;-36
2023/02/12 05:46:43;;;;;;;55.88;27.85;;;;;;;-2.97;66.30;101107.44;5091134;28;20442;-35
2023/02/12 05:49:09;;;;;;;50.25;24.95;;;;;;;-2.85;65.71;101129.28;5091676;28;20032;-37
2023/02/12 05:51:36;;;;;;;49.38;23.95;;;;;;;-2.75;65.92;101124.25;5090690;28;20028;-35
2023/02/12 05:54:04;;;;;;;56.08;25.55;;;;;;;-2.64;65.22;101119.94;5090999;28;20034;-37
2023/02/12 05:56:35;;;;;;;246.30;84.68;;;;;;;-2.58;65.90;101138.75;5091067;28;20039;-37
2023/02/12 05:59:06;;;;;;;163.07;70.30;;;;;;;-2.56;64.30;101114.19;5091511;28;20118;-37
2023/02/12 06:01:38;;;;;;;97.35;46.83;;;;;;;-2.47;65.07;101128.38;5090946;28;20016;-37
2023/02/12 06:04:06;;;;;;;134.50;64.72;;;;;;;-2.25;64.09;101138.97;5089000;28;20119;-36
2023/02/12 06:06:33;;;;;;;60.95;30.75;;;;;;;-2.15;64.14;101123.47;5080994;28;20029;-37
2023/02/12 06:08:59;;;;;;;55.30;29.27;;;;;;;-2.17;63.98;101120.13;5070664;28;20098;-37
2023/02/12 06:11:25;;;;;;;54.25;29.25;;;;;;;-2.13;64.05;101131.19;5070488;28;20029;-37
2023/02/12 06:13:51;;;;;;;66.88;33.65;;;;;;;-2.09;63.06;101123.00;5070740;28;20579;-37
2023/02/12 06:16:24;;;;;;;51.38;29.13;;;;;;;-1.95;63.27;101135.09;5070353;28;20024;-37
2023/02/12 06:18:50;;;;;;;63.20;32.17;;;;;;;-1.89;63.46;101137.25;5070363;28;20036;-36
2023/02/12 06:21:17;;;;;;;64.70;33.85;;;;;;;-1.82;65.16;101137.63;5070034;28;20417;-37
2023/02/12 06:23:42;;;;;;;94.03;42.95;;;;;;;-1.72;63.83;101125.56;5070028;28;20037;-37
2023/02/12 06:26:08;;;;;;;76.82;37.67;;;;;;;-1.71;63.48;101127.25;5070329;28;20020;-37
2023/02/12 06:28:34;;;;;;;68.20;36.67;;;;;;;-1.27;62.56;101144.03;5070123;28;20059;-37
2023/02/12 06:31:02;;;;;;;62.25;33.67;;;;;;;-1.31;62.80;101139.13;5069922;28;20032;-37
2023/02/12 06:33:30;;;;;;;79.00;37.92;;;;;;;-1.19;62.78;101147.84;5078830;28;20040;-37
2023/02/12 06:35:56;;;;;;;69.47;34.30;;;;;;;-0.88;62.32;101146.34;5071953;28;20032;-37
2023/02/12 06:38:22;;;;;;;62.70;34.33;;;;;;;-0.95;62.40;101125.03;5070153;28;20033;-38
2023/02/12 06:40:47;;;;;;;52.67;29.55;;;;;;;-0.87;63.06;101121.81;5069536;28;20044;-37
2023/02/12 06:43:13;;;;;;;44.92;25.58;;;;;;;-0.74;63.36;101134.78;5068976;28;20411;-37
2023/02/12 06:45:38;;;;;;;90.13;44.38;;;;;;;-0.63;63.20;101142.66;5069500;28;20052;-36
2023/02/12 06:48:04;;;;;;;58.30;32.78;;;;;;;-0.56;63.03;101130.75;5069742;28;20032;-36
2023/02/12 06:50:29;;;;;;;54.33;27.60;;;;;;;-0.51;64.24;101127.75;5069384;28;20499;-37
2023/02/12 06:52:57;;;;;;;66.75;30.90;;;;;;;-0.39;63.30;101131.19;5069726;28;20465;-37
2023/02/12 06:55:23;;;;;;;273.88;83.95;;;;;;;-0.32;62.78;101137.63;5072098;28;20020;-37
2023/02/12 06:57:48;;;;;;;369.13;119.93;;;;;;;-0.10;62.90;101153.31;5081529;28;20021;-37
2023/02/12 07:00:14;;;;;;;323.58;104.13;;;;;;;-0.33;64.16;101131.53;5069635;28;20120;-36
2023/02/12 07:02:39;;;;;;;194.13;78.40;;;;;;;-0.14;62.48;101125.69;5069638;28;20100;-37
2023/02/12 07:05:05;;;;;;;146.23;73.03;;;;;;;0.19;61.84;101147.50;5069195;28;20123;-37
2023/02/12 07:07:33;;;;;;;335.35;136.65;;;;;;;0.28;60.60;101117.88;5069188;28;20036;-37
2023/02/12 07:09:59;;;;;;;365.40;152.77;;;;;;;0.52;60.65;101135.22;5068280;28;20393;-37
2023/02/12 07:12:24;;;;;;;325.90;135.80;;;;;;;0.47;61.71;101140.84;5069499;28;20157;-37
2023/02/12 07:14:50;;;;;;;212.32;91.15;;;;;;;0.54;61.44;101135.91;5069513;28;20036;-36
2023/02/12 07:17:15;;;;;;;157.10;72.35;;;;;;;0.50;61.76;101140.56;5069159;28;20078;-37
2023/02/12 07:19:43;;;;;;;142.20;63.33;;;;;;;0.64;61.93;101146.50;5069081;28;20028;-37
2023/02/12 07:22:08;;;;;;;115.07;56.40;;;;;;;0.77;61.98;101142.69;5069441;28;20094;-37
2023/02/12 07:24:34;;;;;;;162.55;64.45;;;;;;;0.87;62.26;101147.19;5051362;28;20500;-37
2023/02/12 07:26:59;;;;;;;235.75;84.82;;;;;;;1.05;61.82;101169.28;5072001;28;20051;-37
2023/02/12 07:29:24;;;;;;;144.52;62.80;;;;;;;1.01;62.76;101159.97;5078322;28;20138;-36
2023/02/12 07:31:50;;;;;;;100.55;43.58;;;;;;;1.06;62.20;101160.41;5078144;28;20016;-37
2023/02/12 07:34:15;;;;;;;196.63;71.43;;;;;;;1.13;62.02;101147.59;5089041;28;20027;-37
2023/02/12 07:36:41;;;;;;;108.10;54.95;;;;;;;1.08;62.63;101163.75;5089447;28;20027;-36
2023/02/12 07:39:06;;;;;;;92.65;51.45;;;;;;;1.20;62.48;101165.31;5089462;28;20086;-37
2023/02/12 07:41:34;;;;;;;66.80;40.50;;;;;;;1.18;61.82;101145.41;5088809;28;20196;-37
2023/02/12 07:44:06;;;;;;;363.40;117.78;;;;;;;1.29;61.20;101170.75;5089183;28;20036;-37
2023/02/12 07:46:35;;;;;;;124.55;51.33;;;;;;;1.29;60.40;101155.00;5089033;28;20064;-37
2023/02/12 07:49:04;;;;;;;74.88;37.70;;;;;;;1.44;59.85;101156.31;5089327;28;20024;-37
2023/02/12 07:51:31;;;;;;;124.88;51.92;;;;;;;1.68;60.42;101176.19;5088596;28;20032;-37
2023/02/12 07:53:57;;;;;;;329.67;110.00;;;;;;;1.66;60.75;101176.31;5084922;28;20094;-37
2023/02/12 07:56:29;;;;;;;178.30;69.82;;;;;;;1.86;61.46;101165.84;5091903;28;20032;-37
2023/02/12 07:58:55;;;;;;;311.38;110.45;;;;;;;2.07;60.82;101173.66;5073697;28;20039;-36
2023/02/12 08:01:31;;;;;;;72.72;42.50;;;;;;;2.11;61.13;101175.88;5091138;28;20032;-37
2023/02/12 08:03:59;;;;;;;75.75;42.40;;;;;;;2.15;61.25;101165.91;5065428;28;20032;-37
2023/02/12 08:06:27;;;;;;;92.63;43.85;;;;;;;2.32;61.20;101183.66;5091692;28;20031;-37
2023/02/12 08:08:56;;;;;;;59.63;33.38;;;;;;;2.28;61.91;101169.09;5091887;28;20028;-37
2023/02/12 08:11:22;;;;;;;43.50;24.67;;;;;;;2.20;63.11;101174.22;5091200;28;20078;-37
2023/02/12 08:13:47;;;;;;;46.60;24.63;;;;;;;2.10;63.56;101168.09;5091187;28;20439;-37
2023/02/12 08:16:19;;;;;;;44.75;22.02;;;;;;;2.31;63.62;101173.25;5090958;28;20028;-37
2023/02/12 08:18:45;;;;;;;44.72;23.38;;;;;;;2.43;63.44;101190.56;5091585;28;20032;-36
2023/02/12 08:21:17;;;;;;;60.45;26.75;;;;;;;2.16;63.87;101171.00;5091364;28;20020;-37
2023/02/12 08:23:43;;;;;;;47.17;23.85;;;;;;;2.30;63.57;101201.38;5072541;28;20024;-37
2023/02/12 08:26:08;;;;;;;43.15;22.77;;;;;;;2.15;64.13;101197.50;5090847;28;20020;-37
2023/02/12 08:28:34;;;;;;;38.08;22.33;;;;;;;2.12;64.71;101203.00;5086829;28;20027;-35
2023/02/12 08:31:01;;;;;;;31.77;18.63;;;;;;;2.00;62.74;101194.41;5089002;28;20035;-37
2023/02/12 08:33:27;;;;;;;39.58;22.20;;;;;;;2.15;61.89;101203.59;5090878;28;20058;-37
2023/02/12 08:36:23;;;;;;;35.50;20.52;;;;;;;2.47;60.04;101228.00;5092266;28;20488;-37
2023/02/12 08:38:49;;;;;;;34.63;20.70;;;;;;;2.52;60.54;101205.56;5083255;28;20051;-37
2023/02/12 08:41:18;;;;;;;39.05;21.70;;;;;;;2.63;60.33;101228.28;5091793;28;20056;-36
2023/02/12 08:43:43;;;;;;;;;;;;;;;2.67;61.11;101232.31;5092240;28;20024;-36
2023/02/12 08:46:13;;;;;;;70.63;34.80;;;;;;;2.67;59.25;101227.03;5092145;28;19912;-36
2023/02/12 08:48:40;;;;;;;43.65;23.17;;;;;;;2.76;59.12;101220.94;5092061;28;20035;-36
2023/02/12 08:51:06;;;;;;;37.92;22.15;;;;;;;2.57;59.86;101237.56;5092088;28;20067;-36
2023/02/12 08:53:31;;;;;;;36.60;19.63;;;;;;;2.16;59.97;101235.97;5091499;28;20063;-36
2023/02/12 08:55:57;;;;;;;36.80;18.73;;;;;;;1.89;61.63;101205.03;5092182;28;20081;-36
2023/02/12 08:58:27;;;;;;;41.35;22.92;;;;;;;2.35;61.10;101236.03;5090271;28;20525;-37
2023/02/12 09:00:52;;;;;;;37.00;19.35;;;;;;;2.49;60.07;101229.50;5081843;28;20115;-37
2023/02/12 09:03:18;;;;;;;33.80;19.45;;;;;;;2.75;59.28;101227.16;5087304;28;20551;-37
2023/02/12 09:05:43;;;;;;;32.65;19.10;;;;;;;2.52;58.18;101220.53;5087218;28;20039;-37
2023/02/12 09:08:11;;;;;;;35.55;19.17;;;;;;;2.91;57.18;101236.31;5090675;28;20020;-37
2023/02/12 09:10:44;;;;;;;56.42;24.00;;;;;;;3.36;56.14;101235.69;5090565;28;20024;-37
2023/02/12 09:13:11;;;;;;;33.45;18.48;;;;;;;3.33;55.67;101262.31;5088197;28;20038;-36
2023/02/12 09:15:42;;;;;;;29.00;16.03;;;;;;;3.13;56.31;101240.47;5090527;28;20381;-37
2023/02/12 09:18:10;;;;;;;32.67;17.77;;;;;;;3.65;55.43;101261.16;5087151;28;20269;-37
2023/02/12 09:20:40;;;;;;;32.88;17.48;;;;;;;3.83;54.25;101262.88;5088175;28;20035;-37
2023/02/12 09:23:07;;;;;;;39.63;19.90;;;;;;;4.26;53.70;101262.41;5091503;28;20024;-37
2023/02/12 09:25:33;;;;;;;36.83;19.20;;;;;;;4.56;52.58;101255.94;5091103;28;20036;-37
2023/02/12 09:28:03;;;;;;;39.47;19.73;;;;;;;4.96;50.95;101270.50;5089880;28;20038;-36
2023/02/12 09:30:28;;;;;;;33.40;18.70;;;;;;;5.29;49.79;101278.69;5083843;28;20762;-37
2023/02/12 09:32:55;;;;;;;31.92;18.65;;;;;;;5.64;48.83;101275.97;5089985;28;20021;-37
2023/02/12 09:35:21;;;;;;;40.22;20.35;;;;;;;5.70;48.40;101260.41;5089963;28;20043;-37
2023/02/12 09:37:46;;;;;;;72.95;34.53;;;;;;;5.67;47.90;101258.09;5071734;28;20630;-37
2023/02/12 09:40:25;;;;;;;37.20;20.48;;;;;;;6.00;47.38;101282.94;5090043;28;20048;-37
2023/02/12 09:43:00;;;;;;;42.45;21.02;;;;;;;6.12;46.45;101267.59;5089829;28;20031;-37
2023/02/12 09:45:31;;;;;;;39.33;20.10;;;;;;;6.35;46.29;101279.25;5085785;28;20028;-37
2023/02/12 09:48:06;;;;;;;47.85;24.40;;;;;;;6.61;45.15;101286.28;5086311;28;20086;-37
2023/02/12 09:50:53;;;;;;;32.92;17.92;;;;;;;6.84;43.03;101273.22;5072867;28;20114;-36
2023/02/12 09:53:22;;;;;;;32.35;16.75;;;;;;;6.90;42.02;101253.16;5090850;28;20024;-37
2023/02/12 09:55:47;;;;;;;26.15;15.65;;;;;;;7.32;42.76;101268.91;5090444;28;20057;-37
2023/02/12 09:58:26;;;;;;;29.23;16.60;;;;;;;7.37;41.27;101279.00;5080604;28;20110;-36
2023/02/12 10:00:51;;;;;;;29.65;15.68;;;;;;;7.48;41.35;101278.69;5070737;28;20033;-37
2023/02/12 10:03:17;;;;;;;35.47;19.92;;;;;;;7.76;42.56;101262.31;5070196;28;20416;-36
2023/02/12 10:05:49;;;;;;;27.88;16.75;;;;;;;8.10;41.17;101285.94;5070161;28;20033;-37
2023/02/12 10:08:35;;;;;;;47.85;22.88;;;;;;;8.30;40.37;101273.06;5070263;28;20032;-37
2023/02/12 10:11:19;;;;;;;29.48;16.73;;;;;;;8.80;38.75;101285.06;5070352;28;20514;-36
2023/02/12 10:14:13;;;;;;;32.30;18.02;;;;;;;9.06;39.31;101275.91;5052258;28;20033;-37
2023/02/12 10:17:06;;;;;;;42.70;28.73;;;;;;;9.48;37.57;101287.88;5069951;28;20040;-36
2023/02/12 10:19:52;;;;;;;41.38;30.73;;;;;;;9.88;36.86;101285.75;5069597;28;20086;-35
2023/02/12 10:22:36;;;;;;;24.58;16.30;;;;;;;9.90;35.98;101289.06;5055820;28;20082;-36
2023/02/12 10:25:02;;;;;;;26.00;15.45;;;;;;;9.67;36.67;101275.03;5069768;28;20086;-37
2023/02/12 10:27:49;;;;;;;29.73;15.93;;;;;;;10.05;37.76;101263.25;5069940;28;20028;-36
2023/02/12 10:30:26;;;;;;;28.42;16.23;;;;;;;10.04;36.45;101264.25;5070023;28;20032;-37
2023/02/12 10:33:05;;;;;;;28.40;16.95;;;;;;;10.41;35.91;101270.44;5068459;28;20028;-36
2023/02/12 10:35:33;;;;;;;33.38;18.90;;;;;;;10.28;35.56;101248.94;5055435;28;20028;-37
2023/02/12 10:38:31;;;;;;;30.80;17.77;;;;;;;10.69;36.24;101269.72;5089851;28;20416;-36
2023/02/12 10:41:03;;;;;;;26.52;16.17;;;;;;;10.71;34.66;101264.22;5066164;28;20383;-36
2023/02/12 10:43:29;;;;;;;25.85;16.40;;;;;;;10.69;35.50;101251.06;5065842;28;20033;-37
2023/02/12 10:45:55;;;;;;;24.52;15.55;;;;;;;10.63;34.73;101233.13;5065686;28;20549;-37
2023/02/12 10:48:33;;;;;;;24.42;14.20;;;;;;;10.22;35.92;101249.69;5065966;28;20025;-37
2023/02/12 10:51:08;;;;;;;26.38;14.68;;;;;;;10.22;35.96;101263.03;5066069;28;20090;-37
2023/02/12 10:53:41;;;;;;;29.08;16.73;;;;;;;9.64;36.72;101254.88;5064866;28;20647;-36
2023/02/12 10:56:12;;;;;;;26.58;14.63;;;;;;;9.42;37.89;101259.31;5056748;28;20025;-36
2023/02/12 10:58:41;;;;;;;23.92;14.80;;;;;;;9.45;36.80;101261.59;5045802;28;20029;-37
2023/02/12 11:01:26;;;;;;;25.27;15.18;;;;;;;9.75;36.84;101266.94;5045899;28;20029;-36
2023/02/12 11:03:53;;;;;;;26.35;15.63;;;;;;;10.05;36.54;101265.91;5045747;28;20116;-37
2023/02/12 11:06:25;;;;;;;33.55;18.05;;;;;;;10.32;36.05;101263.59;5045651;28;20029;-37
2023/02/12 11:08:51;;;;;;;25.52;15.00;;;;;;;10.16;36.68;101269.09;5045490;28;20417;-37
2023/02/12 11:11:27;;;;;;;39.13;17.10;;;;;;;10.11;36.69;101276.81;5045685;28;20022;-37
2023/02/12 11:14:04;;;;;;;23.50;15.40;;;;;;;10.18;36.93;101286.56;5045518;28;20488;-36
2023/02/12 11:16:35;;;;;;;21.58;13.60;;;;;;;10.28;36.29;101280.94;5045346;28;20053;-35
2023/02/12 11:19:19;;;;;;;27.58;15.25;;;;;;;9.75;36.98;101266.94;5045217;28;20029;-37
2023/02/12 11:21:44;;;;;;;33.47;16.63;;;;;;;9.33;37.56;101263.84;5045419;28;20104;-35
2023/02/12 11:24:20;;;;;;;39.38;18.85;;;;;;;8.79;38.54;101269.31;5044250;28;20128;-37
2023/02/12 11:26:46;;;;;;;25.60;13.63;;;;;;;9.08;38.22;101270.44;5045263;28;20053;-36
2023/02/12 11:29:23;;;;;;;23.33;13.00;;;;;;;9.20;38.13;101277.78;5049206;28;20037;-37
2023/02/12 11:32:04;;;;;;;29.50;17.10;;;;;;;9.27;37.25;101258.44;5053801;28;20025;-37